sensor_id;sensor_type;location;lat;lon;timestamp;temperature;humidity
1137;DHT22;557;48.466;7.950;2024-02-04T00:00:09;7.10;99.90
1137;DHT22;557;48.466;7.950;2024-02-04T00:02:38;7.10;99.90
1137;DHT22;557;48.466;7.950;2024-02-04T00:05:09;7.20;99.90
1137;DHT22;557;48.466;7.950;2024-02-04T00:07:38;7.20;99.90
1137;DHT22;557;48.466;7.950;2024-02-04T00:10:06;7.20;99.90
1137;DHT22;557;48.466;7.950;2024-02-04T00:12:33;7.20;99.90
1137;DHT22;557;48.466;7.950;2024-02-04T00:15:01;7.20;99.90
1137;DHT22;557;48.466;7.950;2024-02-04T00:17:30;7.30;99.90
1137;DHT22;557;48.466;7.950;2024-02-04T00:19:58;7.30;99.90
1137;DHT22;557;48.466;7.950;2024-02-04T00:22:25;7.30;99.90
1137;DHT22;557;48.466;7.950;2024-02-04T00:24:52;7.30;99.90
1137;DHT22;557;48.466;7.950;2024-02-04T00:27:19;7.40;99.90
1137;DHT22;557;48.466;7.950;2024-02-04T00:29:46;7.40;99.90
1137;DHT22;557;48.466;7.950;2024-02-04T00:32:14;7.40;99.90
1137;DHT22;557;48.466;7.950;2024-02-04T00:34:41;7.50;99.90
1137;DHT22;557;48.466;7.950;2024-02-04T00:37:08;7.50;99.90
1137;DHT22;557;48.466;7.950;2024-02-04T00:39:35;7.60;99.90
1137;DHT22;557;48.466;7.950;2024-02-04T00:42:03;7.60;99.90
1137;DHT22;557;48.466;7.950;2024-02-04T00:44:30;7.60;99.90
1137;DHT22;557;48.466;7.950;2024-02-04T00:46:58;7.60;99.90
1137;DHT22;557;48.466;7.950;2024-02-04T00:49:26;7.60;99.90
1137;DHT22;557;48.466;7.950;2024-02-04T00:51:53;7.60;99.90
1137;DHT22;557;48.466;7.950;2024-02-04T00:54:20;7.60;99.90
1137;DHT22;557;48.466;7.950;2024-02-04T00:56:47;7.60;99.90
1137;DHT22;557;48.466;7.950;2024-02-04T00:59:14;7.60;99.90
1137;DHT22;557;48.466;7.950;2024-02-04T01:01:41;7.60;99.90
1137;DHT22;557;48.466;7.950;2024-02-04T01:04:09;7.60;99.90
1137;DHT22;557;48.466;7.950;2024-02-04T01:06:37;7.60;99.90
1137;DHT22;557;48.466;7.950;2024-02-04T01:09:04;7.60;99.90
1137;DHT22;557;48.466;7.950;2024-02-04T01:11:31;7.70;99.90
1137;DHT22;557;48.466;7.950;2024-02-04T01:13:58;7.70;99.90
1137;DHT22;557;48.466;7.950;2024-02-04T01:16:25;7.60;99.90
1137;DHT22;557;48.466;7.950;2024-02-04T01:18:52;7.70;99.90
1137;DHT22;557;48.466;7.950;2024-02-04T01:21:19;7.70;99.90
1137;DHT22;557;48.466;7.950;2024-02-04T01:23:47;7.70;99.90
1137;DHT22;557;48.466;7.950;2024-02-04T01:26:14;7.70;99.90
1137;DHT22;557;48.466;7.950;2024-02-04T01:28:41;7.80;99.90
1137;DHT22;557;48.466;7.950;2024-02-04T01:31:08;7.80;99.90
1137;DHT22;557;48.466;7.950;2024-02-04T01:33:34;7.70;99.90
1137;DHT22;557;48.466;7.950;2024-02-04T01:36:04;7.70;99.90
1137;DHT22;557;48.466;7.950;2024-02-04T01:38:31;7.60;99.90
1137;DHT22;557;48.466;7.950;2024-02-04T01:40:59;7.60;99.90
1137;DHT22;557;48.466;7.950;2024-02-04T01:43:26;7.70;99.90
1137;DHT22;557;48.466;7.950;2024-02-04T01:45:53;7.70;99.90
1137;DHT22;557;48.466;7.950;2024-02-04T01:48:21;7.70;99.90
1137;DHT22;557;48.466;7.950;2024-02-04T01:50:50;7.70;99.90
1137;DHT22;557;48.466;7.950;2024-02-04T01:53:18;7.80;99.90
1137;DHT22;557;48.466;7.950;2024-02-04T01:55:46;7.80;99.90
1137;DHT22;557;48.466;7.950;2024-02-04T01:58:16;7.80;99.90
1137;DHT22;557;48.466;7.950;2024-02-04T02:00:43;7.70;99.90
1137;DHT22;557;48.466;7.950;2024-02-04T02:03:11;7.60;99.90
1137;DHT22;557;48.466;7.950;2024-02-04T02:05:40;7.40;99.90
1137;DHT22;557;48.466;7.950;2024-02-04T02:08:07;7.20;99.90
1137;DHT22;557;48.466;7.950;2024-02-04T02:10:34;7.10;99.90
1137;DHT22;557;48.466;7.950;2024-02-04T02:13:07;7.00;99.90
1137;DHT22;557;48.466;7.950;2024-02-04T02:15:43;6.90;99.90
1137;DHT22;557;48.466;7.950;2024-02-04T02:18:13;6.90;99.90
1137;DHT22;557;48.466;7.950;2024-02-04T02:20:52;6.80;99.90
1137;DHT22;557;48.466;7.950;2024-02-04T02:23:22;6.70;99.90
1137;DHT22;557;48.466;7.950;2024-02-04T02:25:56;6.70;99.90
1137;DHT22;557;48.466;7.950;2024-02-04T02:28:23;6.70;99.90
1137;DHT22;557;48.466;7.950;2024-02-04T02:30:50;6.70;99.90
1137;DHT22;557;48.466;7.950;2024-02-04T02:33:17;6.70;99.90
1137;DHT22;557;48.466;7.950;2024-02-04T02:35:46;6.70;99.90
1137;DHT22;557;48.466;7.950;2024-02-04T02:38:22;6.60;99.90
1137;DHT22;557;48.466;7.950;2024-02-04T02:40:58;6.70;99.90
1137;DHT22;557;48.466;7.950;2024-02-04T02:43:26;6.70;99.90
1137;DHT22;557;48.466;7.950;2024-02-04T02:45:54;6.70;99.90
1137;DHT22;557;48.466;7.950;2024-02-04T02:48:21;6.70;99.90
1137;DHT22;557;48.466;7.950;2024-02-04T02:50:48;6.70;99.90
1137;DHT22;557;48.466;7.950;2024-02-04T02:53:15;6.80;99.90
1137;DHT22;557;48.466;7.950;2024-02-04T02:55:45;6.80;99.90
1137;DHT22;557;48.466;7.950;2024-02-04T02:58:14;6.70;99.90
1137;DHT22;557;48.466;7.950;2024-02-04T03:00:41;6.70;99.90
1137;DHT22;557;48.466;7.950;2024-02-04T03:03:08;6.80;99.90
1137;DHT22;557;48.466;7.950;2024-02-04T03:05:35;6.70;99.90
1137;DHT22;557;48.466;7.950;2024-02-04T03:08:03;6.70;99.90
1137;DHT22;557;48.466;7.950;2024-02-04T03:10:30;6.80;99.90
1137;DHT22;557;48.466;7.950;2024-02-04T03:12:57;6.70;99.90
1137;DHT22;557;48.466;7.950;2024-02-04T03:15:25;6.70;99.90
1137;DHT22;557;48.466;7.950;2024-02-04T03:17:52;6.80;99.90
1137;DHT22;557;48.466;7.950;2024-02-04T03:20:19;6.80;99.90
1137;DHT22;557;48.466;7.950;2024-02-04T03:22:47;6.80;99.90
1137;DHT22;557;48.466;7.950;2024-02-04T03:25:14;6.80;99.90
1137;DHT22;557;48.466;7.950;2024-02-04T03:27:42;6.90;99.90
1137;DHT22;557;48.466;7.950;2024-02-04T03:30:10;6.90;99.90
1137;DHT22;557;48.466;7.950;2024-02-04T03:32:38;6.90;99.90
1137;DHT22;557;48.466;7.950;2024-02-04T03:35:05;6.90;99.90
1137;DHT22;557;48.466;7.950;2024-02-04T03:37:32;6.90;99.90
1137;DHT22;557;48.466;7.950;2024-02-04T03:39:59;6.90;99.90
1137;DHT22;557;48.466;7.950;2024-02-04T03:42:26;6.90;99.90
1137;DHT22;557;48.466;7.950;2024-02-04T03:44:53;6.90;99.90
1137;DHT22;557;48.466;7.950;2024-02-04T03:47:20;6.90;99.90
1137;DHT22;557;48.466;7.950;2024-02-04T03:49:48;6.90;99.90
1137;DHT22;557;48.466;7.950;2024-02-04T03:52:15;6.90;99.90
1137;DHT22;557;48.466;7.950;2024-02-04T03:54:42;7.00;99.90
1137;DHT22;557;48.466;7.950;2024-02-04T03:57:09;7.00;99.90
1137;DHT22;557;48.466;7.950;2024-02-04T03:59:36;7.10;99.90
1137;DHT22;557;48.466;7.950;2024-02-04T04:02:03;7.10;99.90
1137;DHT22;557;48.466;7.950;2024-02-04T04:04:30;7.10;99.90
1137;DHT22;557;48.466;7.950;2024-02-04T04:06:58;7.20;99.90
1137;DHT22;557;48.466;7.950;2024-02-04T04:09:25;7.20;99.90
1137;DHT22;557;48.466;7.950;2024-02-04T04:11:52;7.20;99.90
1137;DHT22;557;48.466;7.950;2024-02-04T04:14:18;7.20;99.90
1137;DHT22;557;48.466;7.950;2024-02-04T04:16:45;7.30;99.90
1137;DHT22;557;48.466;7.950;2024-02-04T04:19:12;7.20;99.90
1137;DHT22;557;48.466;7.950;2024-02-04T04:21:39;7.20;99.90
1137;DHT22;557;48.466;7.950;2024-02-04T04:24:08;7.20;99.90
1137;DHT22;557;48.466;7.950;2024-02-04T04:26:35;7.20;99.90
1137;DHT22;557;48.466;7.950;2024-02-04T04:29:02;7.20;99.90
1137;DHT22;557;48.466;7.950;2024-02-04T04:31:29;7.10;99.90
1137;DHT22;557;48.466;7.950;2024-02-04T04:33:56;7.10;99.90
1137;DHT22;557;48.466;7.950;2024-02-04T04:36:23;7.10;99.90
1137;DHT22;557;48.466;7.950;2024-02-04T04:38:49;7.00;99.90
1137;DHT22;557;48.466;7.950;2024-02-04T04:41:18;7.00;99.90
1137;DHT22;557;48.466;7.950;2024-02-04T04:43:44;7.00;99.90
1137;DHT22;557;48.466;7.950;2024-02-04T04:46:11;7.00;99.90
1137;DHT22;557;48.466;7.950;2024-02-04T04:48:38;7.00;99.90
1137;DHT22;557;48.466;7.950;2024-02-04T04:51:07;7.00;99.90
1137;DHT22;557;48.466;7.950;2024-02-04T04:53:34;7.00;99.90
1137;DHT22;557;48.466;7.950;2024-02-04T04:56:01;7.00;99.90
1137;DHT22;557;48.466;7.950;2024-02-04T04:58:29;7.10;99.90
1137;DHT22;557;48.466;7.950;2024-02-04T05:00:56;7.10;99.90
1137;DHT22;557;48.466;7.950;2024-02-04T05:03:23;7.10;99.90
1137;DHT22;557;48.466;7.950;2024-02-04T05:05:50;7.10;99.90
1137;DHT22;557;48.466;7.950;2024-02-04T05:08:17;7.00;99.90
1137;DHT22;557;48.466;7.950;2024-02-04T05:10:44;7.00;99.90
1137;DHT22;557;48.466;7.950;2024-02-04T05:13:11;7.00;99.90
1137;DHT22;557;48.466;7.950;2024-02-04T05:15:39;7.00;99.90
1137;DHT22;557;48.466;7.950;2024-02-04T05:18:06;6.90;99.90
1137;DHT22;557;48.466;7.950;2024-02-04T05:20:33;6.90;99.90
1137;DHT22;557;48.466;7.950;2024-02-04T05:23:00;6.90;99.90
1137;DHT22;557;48.466;7.950;2024-02-04T05:25:27;6.90;99.90
1137;DHT22;557;48.466;7.950;2024-02-04T05:27:54;6.90;99.90
1137;DHT22;557;48.466;7.950;2024-02-04T05:30:21;6.80;99.90
1137;DHT22;557;48.466;7.950;2024-02-04T05:32:49;6.80;99.90
1137;DHT22;557;48.466;7.950;2024-02-04T05:35:16;6.80;99.90
1137;DHT22;557;48.466;7.950;2024-02-04T05:37:43;6.70;99.90
1137;DHT22;557;48.466;7.950;2024-02-04T05:40:11;6.70;99.90
1137;DHT22;557;48.466;7.950;2024-02-04T05:42:40;6.70;99.90
1137;DHT22;557;48.466;7.950;2024-02-04T05:45:08;6.80;99.90
1137;DHT22;557;48.466;7.950;2024-02-04T05:47:35;6.80;99.90
1137;DHT22;557;48.466;7.950;2024-02-04T05:50:04;6.70;99.90
1137;DHT22;557;48.466;7.950;2024-02-04T05:52:32;6.70;99.90
1137;DHT22;557;48.466;7.950;2024-02-04T05:54:59;6.80;99.90
1137;DHT22;557;48.466;7.950;2024-02-04T05:57:26;6.80;99.90
1137;DHT22;557;48.466;7.950;2024-02-04T05:59:54;6.70;99.90
1137;DHT22;557;48.466;7.950;2024-02-04T06:02:22;6.70;99.90
1137;DHT22;557;48.466;7.950;2024-02-04T06:04:50;6.80;99.90
1137;DHT22;557;48.466;7.950;2024-02-04T06:07:18;6.70;99.90
1137;DHT22;557;48.466;7.950;2024-02-04T06:09:46;6.70;99.90
1137;DHT22;557;48.466;7.950;2024-02-04T06:12:13;6.80;99.90
1137;DHT22;557;48.466;7.950;2024-02-04T06:14:40;6.80;99.90
1137;DHT22;557;48.466;7.950;2024-02-04T06:17:07;6.80;99.90
1137;DHT22;557;48.466;7.950;2024-02-04T06:19:35;6.80;99.90
1137;DHT22;557;48.466;7.950;2024-02-04T06:22:03;6.80;99.90
1137;DHT22;557;48.466;7.950;2024-02-04T06:24:31;6.90;99.90
1137;DHT22;557;48.466;7.950;2024-02-04T06:26:58;6.90;99.90
1137;DHT22;557;48.466;7.950;2024-02-04T06:29:27;6.90;99.90
1137;DHT22;557;48.466;7.950;2024-02-04T06:31:55;6.90;99.90
1137;DHT22;557;48.466;7.950;2024-02-04T06:34:23;6.90;99.90
1137;DHT22;557;48.466;7.950;2024-02-04T06:36:50;6.90;99.90
1137;DHT22;557;48.466;7.950;2024-02-04T06:39:17;6.90;99.90
1137;DHT22;557;48.466;7.950;2024-02-04T06:41:47;6.90;99.90
1137;DHT22;557;48.466;7.950;2024-02-04T06:44:16;6.90;99.90
1137;DHT22;557;48.466;7.950;2024-02-04T06:46:46;6.90;99.90
1137;DHT22;557;48.466;7.950;2024-02-04T06:49:20;6.90;99.90
1137;DHT22;557;48.466;7.950;2024-02-04T06:51:57;6.80;99.90
1137;DHT22;557;48.466;7.950;2024-02-04T06:54:44;6.80;99.90
1137;DHT22;557;48.466;7.950;2024-02-04T06:57:21;6.80;99.90
1137;DHT22;557;48.466;7.950;2024-02-04T06:59:55;6.90;99.90
1137;DHT22;557;48.466;7.950;2024-02-04T07:02:33;6.80;99.90
1137;DHT22;557;48.466;7.950;2024-02-04T07:05:01;6.80;99.90
1137;DHT22;557;48.466;7.950;2024-02-04T07:07:41;6.80;99.90
1137;DHT22;557;48.466;7.950;2024-02-04T07:10:10;6.80;99.90
1137;DHT22;557;48.466;7.950;2024-02-04T07:12:39;6.80;99.90
1137;DHT22;557;48.466;7.950;2024-02-04T07:15:08;6.80;99.90
1137;DHT22;557;48.466;7.950;2024-02-04T07:17:35;6.80;99.90
1137;DHT22;557;48.466;7.950;2024-02-04T07:23:13;6.80;99.90
1137;DHT22;557;48.466;7.950;2024-02-04T07:25:40;6.90;99.90
1137;DHT22;557;48.466;7.950;2024-02-04T07:28:09;6.90;99.90
1137;DHT22;557;48.466;7.950;2024-02-04T07:30:36;6.90;99.90
1137;DHT22;557;48.466;7.950;2024-02-04T07:33:04;6.90;99.90
1137;DHT22;557;48.466;7.950;2024-02-04T07:35:32;7.00;99.90
1137;DHT22;557;48.466;7.950;2024-02-04T07:37:59;7.00;99.90
1137;DHT22;557;48.466;7.950;2024-02-04T07:40:28;7.00;99.90
1137;DHT22;557;48.466;7.950;2024-02-04T07:42:55;7.00;99.90
1137;DHT22;557;48.466;7.950;2024-02-04T07:45:24;7.00;99.90
1137;DHT22;557;48.466;7.950;2024-02-04T07:47:51;6.90;99.90
1137;DHT22;557;48.466;7.950;2024-02-04T07:50:19;7.00;99.90
1137;DHT22;557;48.466;7.950;2024-02-04T07:52:48;7.00;99.90
1137;DHT22;557;48.466;7.950;2024-02-04T07:55:15;7.00;99.90
1137;DHT22;557;48.466;7.950;2024-02-04T07:57:42;7.00;99.90
1137;DHT22;557;48.466;7.950;2024-02-04T08:00:09;7.10;99.90
1137;DHT22;557;48.466;7.950;2024-02-04T08:02:39;7.10;99.90
1137;DHT22;557;48.466;7.950;2024-02-04T08:05:07;7.20;99.90
1137;DHT22;557;48.466;7.950;2024-02-04T08:07:34;7.20;99.90
1137;DHT22;557;48.466;7.950;2024-02-04T08:10:01;7.30;99.90
1137;DHT22;557;48.466;7.950;2024-02-04T08:12:28;7.30;99.90
1137;DHT22;557;48.466;7.950;2024-02-04T08:14:55;7.40;99.90
1137;DHT22;557;48.466;7.950;2024-02-04T08:17:22;7.40;99.90
1137;DHT22;557;48.466;7.950;2024-02-04T08:19:51;7.40;99.90
1137;DHT22;557;48.466;7.950;2024-02-04T08:22:19;7.50;99.90
1137;DHT22;557;48.466;7.950;2024-02-04T08:24:47;7.50;99.90
1137;DHT22;557;48.466;7.950;2024-02-04T08:27:14;7.50;99.90
1137;DHT22;557;48.466;7.950;2024-02-04T08:29:44;7.50;99.90
1137;DHT22;557;48.466;7.950;2024-02-04T08:32:11;7.50;99.90
1137;DHT22;557;48.466;7.950;2024-02-04T08:34:39;7.60;99.90
1137;DHT22;557;48.466;7.950;2024-02-04T08:37:12;7.60;99.90
1137;DHT22;557;48.466;7.950;2024-02-04T08:39:39;7.60;99.90
1137;DHT22;557;48.466;7.950;2024-02-04T08:42:16;7.60;99.90
1137;DHT22;557;48.466;7.950;2024-02-04T08:44:43;7.60;99.90
1137;DHT22;557;48.466;7.950;2024-02-04T08:47:11;7.70;99.90
1137;DHT22;557;48.466;7.950;2024-02-04T08:49:40;7.80;99.90
1137;DHT22;557;48.466;7.950;2024-02-04T08:52:09;7.80;99.90
1137;DHT22;557;48.466;7.950;2024-02-04T08:54:35;7.80;99.90
1137;DHT22;557;48.466;7.950;2024-02-04T08:57:03;7.80;99.90
1137;DHT22;557;48.466;7.950;2024-02-04T08:59:30;7.80;99.90
1137;DHT22;557;48.466;7.950;2024-02-04T09:01:58;7.90;99.90
1137;DHT22;557;48.466;7.950;2024-02-04T09:04:26;7.90;99.90
1137;DHT22;557;48.466;7.950;2024-02-04T09:06:54;7.90;99.90
1137;DHT22;557;48.466;7.950;2024-02-04T09:09:23;7.90;99.90
1137;DHT22;557;48.466;7.950;2024-02-04T09:11:50;7.90;99.90
1137;DHT22;557;48.466;7.950;2024-02-04T09:14:17;8.00;99.90
1137;DHT22;557;48.466;7.950;2024-02-04T09:16:45;8.00;99.90
1137;DHT22;557;48.466;7.950;2024-02-04T09:19:15;8.00;99.90
1137;DHT22;557;48.466;7.950;2024-02-04T09:21:42;8.10;99.90
1137;DHT22;557;48.466;7.950;2024-02-04T09:24:09;8.10;99.90
1137;DHT22;557;48.466;7.950;2024-02-04T09:26:38;8.20;99.90
1137;DHT22;557;48.466;7.950;2024-02-04T09:29:07;8.20;99.90
1137;DHT22;557;48.466;7.950;2024-02-04T09:31:35;8.20;99.90
1137;DHT22;557;48.466;7.950;2024-02-04T09:34:02;8.30;99.90
1137;DHT22;557;48.466;7.950;2024-02-04T09:36:32;8.30;99.90
1137;DHT22;557;48.466;7.950;2024-02-04T09:39:00;8.30;99.90
1137;DHT22;557;48.466;7.950;2024-02-04T09:41:28;8.20;99.90
1137;DHT22;557;48.466;7.950;2024-02-04T09:43:57;8.30;99.90
1137;DHT22;557;48.466;7.950;2024-02-04T09:46:37;8.30;99.90
1137;DHT22;557;48.466;7.950;2024-02-04T09:49:05;8.50;99.90
1137;DHT22;557;48.466;7.950;2024-02-04T09:51:32;8.50;99.90
1137;DHT22;557;48.466;7.950;2024-02-04T09:54:04;8.50;99.90
1137;DHT22;557;48.466;7.950;2024-02-04T09:56:34;8.60;99.90
1137;DHT22;557;48.466;7.950;2024-02-04T09:59:09;8.60;99.90
1137;DHT22;557;48.466;7.950;2024-02-04T10:01:36;8.70;99.90
1137;DHT22;557;48.466;7.950;2024-02-04T10:04:03;8.70;99.90
1137;DHT22;557;48.466;7.950;2024-02-04T10:06:31;8.70;99.90
1137;DHT22;557;48.466;7.950;2024-02-04T10:09:00;8.70;99.90
1137;DHT22;557;48.466;7.950;2024-02-04T10:11:28;8.50;99.90
1137;DHT22;557;48.466;7.950;2024-02-04T10:13:55;8.50;99.90
1137;DHT22;557;48.466;7.950;2024-02-04T10:16:24;8.50;99.90
1137;DHT22;557;48.466;7.950;2024-02-04T10:18:52;8.50;99.90
1137;DHT22;557;48.466;7.950;2024-02-04T10:21:22;8.60;99.90
1137;DHT22;557;48.466;7.950;2024-02-04T10:23:51;8.70;99.90
1137;DHT22;557;48.466;7.950;2024-02-04T10:26:19;8.90;99.90
1137;DHT22;557;48.466;7.950;2024-02-04T10:28:47;9.00;99.90
1137;DHT22;557;48.466;7.950;2024-02-04T10:31:18;9.10;99.90
1137;DHT22;557;48.466;7.950;2024-02-04T10:33:46;9.20;99.90
1137;DHT22;557;48.466;7.950;2024-02-04T10:36:17;9.10;99.90
1137;DHT22;557;48.466;7.950;2024-02-04T10:38:44;9.10;99.90
1137;DHT22;557;48.466;7.950;2024-02-04T10:41:15;9.10;99.90
1137;DHT22;557;48.466;7.950;2024-02-04T10:43:44;9.10;99.90
1137;DHT22;557;48.466;7.950;2024-02-04T10:46:13;9.10;99.90
1137;DHT22;557;48.466;7.950;2024-02-04T10:48:54;9.20;99.90
1137;DHT22;557;48.466;7.950;2024-02-04T10:51:26;9.30;99.90
1137;DHT22;557;48.466;7.950;2024-02-04T10:53:59;9.40;99.90
1137;DHT22;557;48.466;7.950;2024-02-04T10:56:37;9.40;99.90
1137;DHT22;557;48.466;7.950;2024-02-04T10:59:05;9.40;99.90
1137;DHT22;557;48.466;7.950;2024-02-04T11:01:33;9.40;99.90
1137;DHT22;557;48.466;7.950;2024-02-04T11:04:05;9.50;99.90
1137;DHT22;557;48.466;7.950;2024-02-04T11:06:34;9.50;99.90
1137;DHT22;557;48.466;7.950;2024-02-04T11:09:04;9.50;99.90
1137;DHT22;557;48.466;7.950;2024-02-04T11:11:32;9.60;99.90
1137;DHT22;557;48.466;7.950;2024-02-04T11:14:03;10.00;99.90
1137;DHT22;557;48.466;7.950;2024-02-04T11:16:50;10.60;99.90
1137;DHT22;557;48.466;7.950;2024-02-04T11:19:33;10.80;99.90
1137;DHT22;557;48.466;7.950;2024-02-04T11:22:29;10.80;99.90
1137;DHT22;557;48.466;7.950;2024-02-04T11:25:11;10.70;99.90
1137;DHT22;557;48.466;7.950;2024-02-04T11:27:43;10.60;99.90
1137;DHT22;557;48.466;7.950;2024-02-04T11:30:12;10.40;99.90
1137;DHT22;557;48.466;7.950;2024-02-04T11:32:46;10.30;99.90
1137;DHT22;557;48.466;7.950;2024-02-04T11:35:32;10.30;99.90
1137;DHT22;557;48.466;7.950;2024-02-04T11:37:59;10.30;99.90
1137;DHT22;557;48.466;7.950;2024-02-04T11:40:30;10.10;99.90
1137;DHT22;557;48.466;7.950;2024-02-04T11:43:05;10.10;99.90
1137;DHT22;557;48.466;7.950;2024-02-04T11:45:33;10.20;99.90
1137;DHT22;557;48.466;7.950;2024-02-04T11:48:06;10.30;99.90
1137;DHT22;557;48.466;7.950;2024-02-04T11:50:35;10.30;99.90
1137;DHT22;557;48.466;7.950;2024-02-04T11:53:05;10.30;99.90
1137;DHT22;557;48.466;7.950;2024-02-04T11:55:33;10.30;99.90
1137;DHT22;557;48.466;7.950;2024-02-04T11:58:00;10.40;99.90
1137;DHT22;557;48.466;7.950;2024-02-04T12:00:27;10.30;99.90
1137;DHT22;557;48.466;7.950;2024-02-04T12:03:01;10.40;99.90
1137;DHT22;557;48.466;7.950;2024-02-04T12:05:30;10.40;99.90
1137;DHT22;557;48.466;7.950;2024-02-04T12:08:07;10.30;99.90
1137;DHT22;557;48.466;7.950;2024-02-04T12:10:38;10.30;99.90
1137;DHT22;557;48.466;7.950;2024-02-04T12:13:06;10.40;99.90
1137;DHT22;557;48.466;7.950;2024-02-04T12:15:34;10.50;99.90
1137;DHT22;557;48.466;7.950;2024-02-04T12:18:08;10.40;99.90
1137;DHT22;557;48.466;7.950;2024-02-04T12:20:36;10.20;99.90
1137;DHT22;557;48.466;7.950;2024-02-04T12:23:07;10.40;99.90
1137;DHT22;557;48.466;7.950;2024-02-04T12:25:35;10.50;99.90
1137;DHT22;557;48.466;7.950;2024-02-04T12:28:04;10.40;99.90
1137;DHT22;557;48.466;7.950;2024-02-04T12:30:33;10.30;99.90
1137;DHT22;557;48.466;7.950;2024-02-04T12:33:01;10.20;99.90
1137;DHT22;557;48.466;7.950;2024-02-04T12:35:31;10.10;99.90
1137;DHT22;557;48.466;7.950;2024-02-04T12:37:59;10.20;99.90
1137;DHT22;557;48.466;7.950;2024-02-04T12:40:29;10.20;99.90
1137;DHT22;557;48.466;7.950;2024-02-04T12:42:56;10.20;99.90
1137;DHT22;557;48.466;7.950;2024-02-04T12:45:24;10.20;99.90
1137;DHT22;557;48.466;7.950;2024-02-04T12:47:52;10.20;99.90
1137;DHT22;557;48.466;7.950;2024-02-04T12:50:19;10.10;99.90
1137;DHT22;557;48.466;7.950;2024-02-04T12:52:47;10.10;99.90
1137;DHT22;557;48.466;7.950;2024-02-04T12:55:22;10.00;99.90
1137;DHT22;557;48.466;7.950;2024-02-04T12:58:01;10.00;99.90
1137;DHT22;557;48.466;7.950;2024-02-04T13:00:29;10.10;99.90
1137;DHT22;557;48.466;7.950;2024-02-04T13:02:56;10.10;99.90
1137;DHT22;557;48.466;7.950;2024-02-04T13:05:26;10.10;99.90
1137;DHT22;557;48.466;7.950;2024-02-04T13:07:56;10.10;99.90
1137;DHT22;557;48.466;7.950;2024-02-04T13:10:24;10.00;99.90
1137;DHT22;557;48.466;7.950;2024-02-04T13:13:03;10.00;99.90
1137;DHT22;557;48.466;7.950;2024-02-04T13:15:34;10.00;99.90
1137;DHT22;557;48.466;7.950;2024-02-04T13:18:01;10.10;99.90
1137;DHT22;557;48.466;7.950;2024-02-04T13:20:27;10.10;99.90
1137;DHT22;557;48.466;7.950;2024-02-04T13:22:54;10.20;99.90
1137;DHT22;557;48.466;7.950;2024-02-04T13:25:22;10.30;99.90
1137;DHT22;557;48.466;7.950;2024-02-04T13:27:50;10.50;99.90
1137;DHT22;557;48.466;7.950;2024-02-04T13:30:19;10.60;99.90
1137;DHT22;557;48.466;7.950;2024-02-04T13:32:46;10.70;99.90
1137;DHT22;557;48.466;7.950;2024-02-04T13:35:13;10.70;99.90
1137;DHT22;557;48.466;7.950;2024-02-04T13:37:43;10.70;99.90
1137;DHT22;557;48.466;7.950;2024-02-04T13:40:13;10.70;99.90
1137;DHT22;557;48.466;7.950;2024-02-04T13:42:40;10.70;99.90
1137;DHT22;557;48.466;7.950;2024-02-04T13:45:07;10.70;99.90
1137;DHT22;557;48.466;7.950;2024-02-04T13:47:36;10.70;99.90
1137;DHT22;557;48.466;7.950;2024-02-04T13:50:03;10.70;99.90
1137;DHT22;557;48.466;7.950;2024-02-04T13:52:30;10.60;99.90
1137;DHT22;557;48.466;7.950;2024-02-04T13:54:58;10.60;99.90
1137;DHT22;557;48.466;7.950;2024-02-04T13:57:25;10.50;99.90
1137;DHT22;557;48.466;7.950;2024-02-04T13:59:52;10.40;99.90
1137;DHT22;557;48.466;7.950;2024-02-04T14:02:19;10.40;99.90
1137;DHT22;557;48.466;7.950;2024-02-04T14:04:47;10.40;99.90
1137;DHT22;557;48.466;7.950;2024-02-04T14:07:14;10.40;99.90
1137;DHT22;557;48.466;7.950;2024-02-04T14:09:40;10.40;99.90
1137;DHT22;557;48.466;7.950;2024-02-04T14:12:09;10.30;99.90
1137;DHT22;557;48.466;7.950;2024-02-04T14:14:37;10.40;99.90
1137;DHT22;557;48.466;7.950;2024-02-04T14:17:04;10.40;99.90
1137;DHT22;557;48.466;7.950;2024-02-04T14:19:31;10.40;99.90
1137;DHT22;557;48.466;7.950;2024-02-04T14:21:59;10.40;99.90
1137;DHT22;557;48.466;7.950;2024-02-04T14:24:26;10.30;99.90
1137;DHT22;557;48.466;7.950;2024-02-04T14:26:56;10.40;99.90
1137;DHT22;557;48.466;7.950;2024-02-04T14:29:24;10.40;99.90
1137;DHT22;557;48.466;7.950;2024-02-04T14:31:51;10.20;99.90
1137;DHT22;557;48.466;7.950;2024-02-04T14:34:19;10.20;99.90
1137;DHT22;557;48.466;7.950;2024-02-04T14:36:46;10.20;99.90
1137;DHT22;557;48.466;7.950;2024-02-04T14:39:14;10.20;99.90
1137;DHT22;557;48.466;7.950;2024-02-04T14:41:41;10.20;99.90
1137;DHT22;557;48.466;7.950;2024-02-04T14:44:11;10.20;99.90
1137;DHT22;557;48.466;7.950;2024-02-04T14:46:39;10.20;99.90
1137;DHT22;557;48.466;7.950;2024-02-04T14:49:06;10.10;99.90
1137;DHT22;557;48.466;7.950;2024-02-04T14:51:33;10.10;99.90
1137;DHT22;557;48.466;7.950;2024-02-04T14:54:01;10.00;99.90
1137;DHT22;557;48.466;7.950;2024-02-04T14:56:30;10.10;99.90
1137;DHT22;557;48.466;7.950;2024-02-04T14:58:56;10.00;99.90
1137;DHT22;557;48.466;7.950;2024-02-04T15:01:23;10.00;99.90
1137;DHT22;557;48.466;7.950;2024-02-04T15:03:50;10.00;99.90
1137;DHT22;557;48.466;7.950;2024-02-04T15:06:18;9.90;99.90
1137;DHT22;557;48.466;7.950;2024-02-04T15:08:45;9.90;99.90
1137;DHT22;557;48.466;7.950;2024-02-04T15:11:11;9.90;99.90
1137;DHT22;557;48.466;7.950;2024-02-04T15:13:40;9.90;99.90
1137;DHT22;557;48.466;7.950;2024-02-04T15:16:08;9.90;99.90
1137;DHT22;557;48.466;7.950;2024-02-04T15:18:38;9.90;99.90
1137;DHT22;557;48.466;7.950;2024-02-04T15:21:06;9.80;99.90
1137;DHT22;557;48.466;7.950;2024-02-04T15:23:33;9.90;99.90
1137;DHT22;557;48.466;7.950;2024-02-04T15:26:02;9.80;99.90
1137;DHT22;557;48.466;7.950;2024-02-04T15:28:31;9.80;99.90
1137;DHT22;557;48.466;7.950;2024-02-04T15:31:00;9.80;99.90
1137;DHT22;557;48.466;7.950;2024-02-04T15:33:30;9.80;99.90
1137;DHT22;557;48.466;7.950;2024-02-04T15:36:00;9.80;99.90
1137;DHT22;557;48.466;7.950;2024-02-04T15:38:27;9.80;99.90
1137;DHT22;557;48.466;7.950;2024-02-04T15:40:54;9.80;99.90
1137;DHT22;557;48.466;7.950;2024-02-04T15:43:22;9.80;99.90
1137;DHT22;557;48.466;7.950;2024-02-04T15:45:49;9.80;99.90
1137;DHT22;557;48.466;7.950;2024-02-04T15:48:20;9.80;99.90
1137;DHT22;557;48.466;7.950;2024-02-04T15:50:48;9.80;99.90
1137;DHT22;557;48.466;7.950;2024-02-04T15:53:15;9.80;99.90
1137;DHT22;557;48.466;7.950;2024-02-04T15:55:43;9.80;99.90
1137;DHT22;557;48.466;7.950;2024-02-04T15:58:11;9.70;99.90
1137;DHT22;557;48.466;7.950;2024-02-04T16:00:39;9.70;99.90
1137;DHT22;557;48.466;7.950;2024-02-04T16:03:07;9.80;99.90
1137;DHT22;557;48.466;7.950;2024-02-04T16:05:36;9.70;99.90
1137;DHT22;557;48.466;7.950;2024-02-04T16:08:04;9.60;99.90
1137;DHT22;557;48.466;7.950;2024-02-04T16:10:32;9.60;99.90
1137;DHT22;557;48.466;7.950;2024-02-04T16:12:59;9.60;99.90
1137;DHT22;557;48.466;7.950;2024-02-04T16:15:29;9.60;99.90
1137;DHT22;557;48.466;7.950;2024-02-04T16:17:56;9.50;99.90
1137;DHT22;557;48.466;7.950;2024-02-04T16:20:24;9.50;99.90
1137;DHT22;557;48.466;7.950;2024-02-04T16:22:53;9.50;99.90
1137;DHT22;557;48.466;7.950;2024-02-04T16:25:20;9.50;99.90
1137;DHT22;557;48.466;7.950;2024-02-04T16:27:47;9.50;99.90
1137;DHT22;557;48.466;7.950;2024-02-04T16:30:14;9.50;99.90
1137;DHT22;557;48.466;7.950;2024-02-04T16:32:42;9.50;99.90
1137;DHT22;557;48.466;7.950;2024-02-04T16:35:09;9.50;99.90
1137;DHT22;557;48.466;7.950;2024-02-04T16:37:36;9.50;99.90
1137;DHT22;557;48.466;7.950;2024-02-04T16:40:06;9.50;99.90
1137;DHT22;557;48.466;7.950;2024-02-04T16:42:34;9.40;99.90